MIA weather

Miami International Airport
Miami, Florida, United States

Public forecast

Using degrees Fahrenheit for public forecast. Weather courtesy of forecast.io.

METAR (pilot weather report)

Retrieved 2017/05/25 00:38 UTC (21 minutes ago):

KMIA 250038Z 25010G29KT 2SM R09/5000VP6000FT +TSRA SCT010 BKN019CB OVC043 24/21 A2989 RMK AO2 PK WND 26036/0027 WSHFT 0017 LTG DSNT ALQDS RAB29 TSB16 FRQ LTGICCC OHD TS OHD MOV NE P0005 T02390211

TAF (pilot weather forecast)

Forecast is more than 12 hours old.

Retrieved 2017/05/24 00:22 UTC (1 day ago):

TAF KMIA 242320Z 2500/2524 20012G22KT P6SM -SHRA VCTS SCT030CB BKN040 BKN090 TEMPO 2500/2502 VRB25G40KT 2SM TSRA SCT015 BKN030CB OVC040 FM250200 20010KT P6SM VCSH SCT040 BKN080 BKN100 FM251400 24016G25KT P6SM -SHRA VCTS SCT030CB BKN050 OVC080